| time (UTC) | temp F | wind direction | speed knots | gust knots | rain 1hr in | rain 24hr in | rain mn in | humidity % | barometer mb |
| 20260504081553 | 48 | 360 | 0.9 | 2.6 | 0.00 | 0.00 | 0.00 | 67 | 1014.3 |
| 20260504050019 | 50 | 360 | 0.0 | 1.7 | 0.00 | 0.00 | 0.00 | 60 | 1014.7 |
| 20260504044540 | 49 | 360 | 0.0 | 4.3 | 0.00 | 0.00 | 0.00 | 61 | 1014.6 |
| 20260504043007 | 49 | 360 | 0.0 | 0.0 | 0.00 | 0.00 | 0.00 | 65 | 1014.5 |
| 20260504041527 | 49 | 360 | 0.0 | 0.0 | 0.00 | 0.00 | 0.00 | 65 | 1014.4 |
| 20260504040034 | 48 | 360 | 0.0 | 1.7 | 0.00 | 0.00 | 0.00 | 67 | 1014.4 |
| 20260504034551 | 47 | 360 | 0.0 | 0.9 | 0.00 | 0.00 | 0.00 | 68 | 1014.3 |
| 20260504033008 | 46 | 360 | 0.0 | 1.7 | 0.00 | 0.00 | 0.00 | 73 | 1014.3 |
| 20260504031532 | 45 | 360 | 0.0 | 1.7 | 0.00 | 0.00 | 0.00 | 81 | 1014.2 |
| 20260504030046 | 43 | 360 | 0.0 | 0.0 | 0.00 | 0.00 | 0.00 | 82 | 1014.4 |
| 20260504024558 | 43 | 360 | 0.0 | 0.0 | 0.00 | 0.00 | 0.00 | 82 | 1014.3 |
| 20260504024506 | 43 | 360 | 0.0 | 0.0 | 0.00 | 0.00 | 0.00 | 81 | 1014.3 |
| 20260504023024 | 43 | 360 | 0.0 | 0.0 | 0.00 | 0.00 | 0.00 | 82 | 1014.2 |
| 20260504021552 | 44 | 360 | 0.0 | 0.0 | 0.00 | 0.00 | 0.00 | 81 | 1014.2 |
| 20260504014518 | 45 | 360 | 0.0 | 0.0 | 0.00 | 0.00 | 0.00 | 76 | 1014.0 |
| 20260504013040 | 46 | 360 | 0.0 | 0.0 | 0.00 | 0.00 | 0.00 | 73 | 1014.0 |
| 20260504011501 | 47 | 360 | 0.0 | 0.0 | 0.00 | 0.00 | 0.00 | 70 | 1013.9 |
| 20260504010006 | 48 | 360 | 0.0 | 0.0 | 0.00 | 0.00 | 0.00 | 68 | 1013.8 |
| 20260504004524 | 50 | 360 | 0.0 | 0.0 | 0.00 | 0.00 | 0.00 | 63 | 1013.7 |
| 20260504003048 | 52 | 360 | 0.0 | 0.0 | 0.00 | 0.00 | 0.00 | 59 | 1013.6 |
| 20260504001512 | 54 | 360 | 0.0 | 0.0 | 0.00 | 0.00 | 0.00 | 54 | 1013.6 |
| 20260504000018 | 56 | 360 | 0.0 | 0.0 | 0.00 | 0.00 | 0.00 | 51 | 1013.5 |
| 20260503234544 | 59 | 360 | 0.0 | 0.0 | 0.00 | 0.00 | 0.00 | 45 | 1013.3 |
| 20260503233010 | 60 | 360 | 0.0 | 3.5 | 0.00 | 0.00 | 0.00 | 37 | 1013.3 |
| 20260503231538 | 61 | 360 | 0.0 | 4.3 | 0.00 | 0.00 | 0.00 | 37 | 1013.2 |
| 20260503230036 | 63 | 360 | 0.0 | 3.5 | 0.00 | 0.00 | 0.00 | 33 | 1013.1 |
| 20260503224604 | 65 | 211 | 0.9 | 2.6 | 0.00 | 0.00 | 0.00 | 31 | 1013.1 |
| 20260503223018 | 65 | 18 | 0.0 | 5.2 | 0.00 | 0.00 | 0.00 | 31 | 1013.2 |
| 20260503221534 | 65 | 281 | 1.7 | 3.5 | 0.00 | 0.00 | 0.00 | 30 | 1013.2 |
| 20260503220034 | 65 | 207 | 0.9 | 3.5 | 0.00 | 0.00 | 0.00 | 30 | 1013.4 |
| 20260503214603 | 65 | 236 | 2.6 | 4.3 | 0.00 | 0.00 | 0.00 | 29 | 1013.3 |
| 20260503213018 | 64 | 360 | 0.9 | 4.3 | 0.00 | 0.00 | 0.00 | 28 | 1013.3 |
| 20260503211606 | 65 | 297 | 0.9 | 7.0 | 0.00 | 0.00 | 0.00 | 30 | 1013.4 |
| 20260503210052 | 64 | 360 | 1.7 | 6.1 | 0.00 | 0.00 | 0.00 | 30 | 1013.5 |
| 20260503204505 | 65 | 259 | 0.9 | 5.2 | 0.00 | 0.00 | 0.00 | 31 | 1013.6 |
| 20260503203022 | 65 | 121 | 0.9 | 2.6 | 0.00 | 0.00 | 0.00 | 33 | 1013.6 |
| 20260503201544 | 65 | 284 | 1.7 | 6.1 | 0.00 | 0.00 | 0.00 | 33 | 1014.0 |
| 20260503200054 | 64 | 360 | 1.7 | 4.3 | 0.00 | 0.00 | 0.00 | 33 | 1014.1 |
| 20260503194508 | 63 | 360 | 1.7 | 7.0 | 0.00 | 0.00 | 0.00 | 34 | 1014.5 |
| 20260503193033 | 63 | 360 | 0.9 | 6.1 | 0.00 | 0.00 | 0.00 | 33 | 1014.7 |
| 20260503191605 | 62 | 360 | 1.7 | 6.1 | 0.00 | 0.00 | 0.00 | 34 | 1015.0 |
| 20260503190055 | 62 | 360 | 3.5 | 7.8 | 0.00 | 0.00 | 0.00 | 30 | 1015.2 |
| 20260503184520 | 61 | 360 | 1.7 | 5.2 | 0.00 | 0.00 | 0.00 | 37 | 1015.4 |
| 20260503183026 | 61 | 360 | 1.7 | 8.7 | 0.00 | 0.00 | 0.00 | 36 | 1015.5 |
| 20260503181615 | 60 | 360 | 2.6 | 6.1 | 0.00 | 0.00 | 0.00 | 36 | 1015.7 |
| 20260503181504 | 60 | 360 | 1.7 | 6.1 | 0.00 | 0.00 | 0.00 | 35 | 1015.7 |
| 20260503180117 | 59 | 360 | 2.6 | 8.7 | 0.00 | 0.00 | 0.00 | 35 | 1015.7 |
| 20260503174541 | 59 | 360 | 2.6 | 10.4 | 0.00 | 0.00 | 0.00 | 35 | 1015.9 |
| 20260503173107 | 60 | 360 | 3.5 | 7.8 | 0.00 | 0.00 | 0.00 | 35 | 1015.8 |
| 20260503171524 | 58 | 360 | 1.7 | 5.2 | 0.00 | 0.00 | 0.00 | 39 | 1016.1 |